Allegheny County Airport
KAGC : now visible

Airfield :











YOU CAN JOIN US ON...

 
LOGIN :

Register | Disclaimer

   EN    FR    IT 

 









Legend :    VFR   Marginal VFR   IFR   Intensive IFR   Very Intensive IFR
Visi :
Ceiling :
>= 8 km
>= 3000ft
5 to 8 km
1000 to 3000 ft
1500m to 5 km
500 to 1000 ft
800 to 1500m
200 to 500 ft
< 800m
< 200 ft
Symbols :   Thunderstorms  Fog  Heavy snow  Heavy precipitations  Wind > 20 kt






- Airport Elevation : 1252 ft
- IATA code : AGC


KAGC - Allegheny County

CURRENT METAR :
  • 171307Z 00000KT 3SM BR CLR M03/M04 A3021 RMK AO2 T10331039

EXPIRED METARs :
  • 171258Z 00000KT 1 3/4SM BR CLR M03/M04 A3021 RMK AO2 T10331039
  • 171253Z 00000KT 4SM BR CLR M04/M04 A3021 RMK AO2 SLP248 T10391039
  • 171245Z 00000KT 1 1/2SM R28/5000VP6000FT BR FEW002 M04/M04 A3020 RMK AO2 T10441044
  • 171234Z 00000KT 1/4SM R28/1400VP6000FT FZFG CLR M03/M04 A3019 RMK AO2 T10331039
  • 171210Z 00000KT 1 3/4SM BR CLR M04/M04 A3019 RMK AO2 T10391044
  • 171153Z 00000KT 5SM BR CLR M02/M03 A3019 RMK AO2 SLP241 I1001 I6001 T10171028 10000 21017 51016
  • 171053Z 00000KT 7SM CLR M01/M02 A3018 RMK AO2 SLP239 T10111022

TAF KAGC
Valid from the 17 at 13:00 until the 18 at 12:00 UTC


171253Z 1713/1812 00000KT 5SM BR FEW250
FM171400 11006KT P6SM FEW100 BKN250
FM180200 12010KT P6SM OVC100
FM180700 16010KT P6SM -SHRA OVC060 WS020/18045KT
FM181100 18011KT P6SM -SHRA OVC025 WS020/21050KT



MET'MAP, your aeronautical weather chart ! - Copyright ORBIFLY December 2007 - Disclaimer

ORBIFLY MET'MAP TEAM :

Programming & Development : Alexandra Zaïnal
Concept & original design : Baudouin d'Aumeries
Assistance for programming : Marc-Olivier Méhu
Technical & hardware support : Manuel Goepfert

Contact : metmap@orbifly.com




SOURCES & CREDITS :

   NOAA       Earth
Advisory